createdAt,value
2022-11-18T00:00:06.032Z,10.10
2022-11-18T00:01:09.718Z,10.10
2022-11-18T00:02:14.085Z,10.00
2022-11-18T00:03:16.426Z,10.00
2022-11-18T00:04:19.455Z,10.10
2022-11-18T00:05:21.489Z,10.10
2022-11-18T00:06:27.139Z,10.10
2022-11-18T00:07:29.201Z,10.10
2022-11-18T00:08:32.428Z,10.10
2022-11-18T00:09:34.388Z,10.10
2022-11-18T00:10:38.873Z,10.10
2022-11-18T00:11:59.299Z,10.10
2022-11-18T00:13:19.764Z,10.10
2022-11-18T00:14:24.611Z,10.10
2022-11-18T00:15:31.598Z,10.10
2022-11-18T00:16:33.797Z,10.20
2022-11-18T00:17:38.316Z,10.20
2022-11-18T00:18:40.293Z,10.10
2022-11-18T00:19:43.239Z,10.10
2022-11-18T00:20:45.167Z,10.10
2022-11-18T00:21:48.175Z,10.10
2022-11-18T00:22:50.175Z,10.10
2022-11-18T00:23:53.123Z,10.00
2022-11-18T00:24:55.135Z,10.10
2022-11-18T00:26:03.390Z,10.10
2022-11-18T00:27:05.383Z,10.10
2022-11-18T00:28:08.292Z,10.10
2022-11-18T00:29:10.720Z,10.10
2022-11-18T00:30:13.869Z,10.10
2022-11-18T00:31:15.874Z,10.10
2022-11-18T00:32:18.860Z,10.10
2022-11-18T00:33:22.209Z,10.10
2022-11-18T00:34:26.074Z,10.00
2022-11-18T00:35:28.083Z,10.10
2022-11-18T00:36:31.386Z,10.10
2022-11-18T00:37:34.015Z,10.10
2022-11-18T00:38:36.961Z,10.10
2022-11-18T00:39:38.937Z,10.10
2022-11-18T00:40:41.898Z,10.10
2022-11-18T00:42:05.027Z,10.10
2022-11-18T00:43:06.976Z,10.10
2022-11-18T00:44:09.697Z,10.10
2022-11-18T00:45:12.741Z,10.10
2022-11-18T00:46:15.196Z,10.10
2022-11-18T00:47:18.170Z,10.10
2022-11-18T00:48:22.226Z,10.10
2022-11-18T00:49:25.205Z,10.10
2022-11-18T00:50:27.175Z,10.10
2022-11-18T00:51:30.116Z,10.10
2022-11-18T00:52:32.039Z,10.10
2022-11-18T00:53:34.986Z,10.10
2022-11-18T00:54:37.021Z,10.10
2022-11-18T00:55:39.923Z,10.00
2022-11-18T00:56:41.853Z,10.00
2022-11-18T00:57:44.797Z,10.10
2022-11-18T00:58:46.744Z,10.10
2022-11-18T01:00:08.539Z,10.10
2022-11-18T01:01:10.556Z,10.10
2022-11-18T01:02:13.595Z,10.10
2022-11-18T01:03:15.871Z,10.10
2022-11-18T01:04:20.215Z,10.10
2022-11-18T01:05:22.252Z,10.10
2022-11-18T01:06:25.247Z,10.10
2022-11-18T01:07:27.366Z,10.10
2022-11-18T01:08:30.402Z,10.10
2022-11-18T01:09:32.374Z,10.10
2022-11-18T01:10:35.657Z,10.10
2022-11-18T01:11:56.112Z,10.10
2022-11-18T01:13:16.703Z,10.10
2022-11-18T01:14:18.731Z,10.10
2022-11-18T01:15:21.721Z,10.00
2022-11-18T01:16:26.464Z,10.10
2022-11-18T01:17:31.515Z,10.00
2022-11-18T01:18:33.510Z,10.10
2022-11-18T01:19:38.599Z,10.10
2022-11-18T01:20:40.576Z,10.10
2022-11-18T01:21:43.549Z,10.10
2022-11-18T01:22:45.547Z,10.00
2022-11-18T01:23:49.114Z,10.10
2022-11-18T01:24:51.117Z,10.10
2022-11-18T01:25:54.104Z,10.10
2022-11-18T01:26:56.146Z,10.10
2022-11-18T01:27:59.175Z,10.10
2022-11-18T01:29:01.344Z,10.00
2022-11-18T01:30:04.665Z,10.00
2022-11-18T01:31:08.586Z,10.00
2022-11-18T01:32:24.495Z,10.00
2022-11-18T01:33:27.223Z,10.00
2022-11-18T01:34:30.462Z,10.00
2022-11-18T01:35:36.682Z,10.10
2022-11-18T01:36:39.800Z,10.00
2022-11-18T01:37:41.719Z,10.00
2022-11-18T01:38:44.761Z,10.00
2022-11-18T01:39:46.745Z,10.10
2022-11-18T01:41:10.481Z,10.00
2022-11-18T01:42:15.523Z,10.10
2022-11-18T01:43:20.769Z,10.20
2022-11-18T01:44:57.026Z,10.10
2022-11-18T01:45:59.992Z,10.10
2022-11-18T01:47:01.937Z,10.10
2022-11-18T01:48:11.563Z,10.10
2022-11-18T01:49:15.686Z,10.10
2022-11-18T01:50:21.304Z,10.20
2022-11-18T01:51:28.500Z,10.10
2022-11-18T01:52:34.097Z,10.10
2022-11-18T01:53:40.585Z,10.10
2022-11-18T01:54:49.102Z,10.10
2022-11-18T01:55:54.195Z,10.10
2022-11-18T01:57:01.373Z,10.00
2022-11-18T01:58:09.846Z,10.10
2022-11-18T01:59:16.646Z,10.10
2022-11-18T02:00:18.870Z,10.00
2022-11-18T02:01:21.929Z,10.00
2022-11-18T02:02:24.730Z,10.00
2022-11-18T02:03:28.771Z,10.00
2022-11-18T02:04:30.767Z,10.00
2022-11-18T02:05:35.553Z,10.00
2022-11-18T02:06:39.171Z,10.10
2022-11-18T02:07:44.385Z,10.20
2022-11-18T02:08:46.662Z,10.00
2022-11-18T02:09:50.293Z,10.00
2022-11-18T02:10:52.584Z,10.00
2022-11-18T02:11:56.404Z,10.00
2022-11-18T02:12:59.353Z,10.00
2022-11-18T02:14:04.354Z,10.00
2022-11-18T02:15:07.494Z,10.10
2022-11-18T02:16:16.958Z,10.10
2022-11-18T02:17:30.437Z,10.10
2022-11-18T02:18:42.890Z,10.10
2022-11-18T02:20:12.205Z,10.10
2022-11-18T02:21:28.117Z,10.10
2022-11-18T02:22:53.490Z,10.10
2022-11-18T02:24:22.140Z,10.10
2022-11-18T02:25:34.378Z,10.00
2022-11-18T02:27:15.116Z,10.00
2022-11-18T02:28:29.852Z,10.00
2022-11-18T02:29:38.807Z,10.00
2022-11-18T02:30:45.178Z,10.10
2022-11-18T02:31:56.350Z,10.10
2022-11-18T02:33:04.160Z,10.10
2022-11-18T02:34:14.604Z,10.10
2022-11-18T02:35:22.636Z,10.00
2022-11-18T02:36:32.813Z,10.00
2022-11-18T02:37:42.762Z,10.10
2022-11-18T02:38:49.511Z,10.10
2022-11-18T02:39:58.321Z,10.10
2022-11-18T02:41:05.281Z,10.10
2022-11-18T02:42:11.889Z,10.10
2022-11-18T02:43:19.562Z,10.10
2022-11-18T02:44:24.739Z,10.10
2022-11-18T02:45:30.670Z,10.10
2022-11-18T02:46:36.073Z,10.00
2022-11-18T02:47:42.221Z,10.00
2022-11-18T02:48:48.198Z,10.10
2022-11-18T02:49:55.083Z,10.10
2022-11-18T02:50:59.145Z,10.00
2022-11-18T02:52:03.707Z,10.00
2022-11-18T02:53:08.308Z,10.10
2022-11-18T02:54:15.333Z,10.00
2022-11-18T02:55:18.741Z,10.10
2022-11-18T02:56:23.045Z,10.10
2022-11-18T02:57:26.249Z,10.10
2022-11-18T02:58:29.293Z,10.10
2022-11-18T02:59:31.741Z,10.10
2022-11-18T03:00:37.583Z,10.10
2022-11-18T03:01:40.172Z,10.10
2022-11-18T03:02:44.580Z,10.10
2022-11-18T03:03:46.828Z,10.10
2022-11-18T03:04:51.579Z,10.10
2022-11-18T03:06:02.874Z,10.10
2022-11-18T03:07:13.006Z,10.10
2022-11-18T03:08:19.713Z,10.10
2022-11-18T03:09:28.778Z,10.10
2022-11-18T03:10:40.443Z,10.10
2022-11-18T03:11:52.434Z,10.10
2022-11-18T03:13:04.382Z,10.00
2022-11-18T03:14:17.566Z,10.10
2022-11-18T03:15:25.900Z,10.10
2022-11-18T03:16:34.248Z,10.00
2022-11-18T03:17:46.878Z,10.10
2022-11-18T03:18:54.626Z,10.00
2022-11-18T03:20:08.713Z,10.10
2022-11-18T03:21:14.595Z,10.00
2022-11-18T03:22:22.874Z,10.00
2022-11-18T03:23:30.161Z,10.00
2022-11-18T03:24:36.158Z,10.00
2022-11-18T03:25:44.723Z,10.00
2022-11-18T03:26:52.421Z,10.10
2022-11-18T03:28:02.357Z,10.00
2022-11-18T03:29:09.189Z,10.10
2022-11-18T03:30:16.019Z,10.10
2022-11-18T03:31:25.224Z,10.00
2022-11-18T03:32:31.627Z,10.00
2022-11-18T03:33:38.899Z,10.00
2022-11-18T03:34:43.505Z,10.00
2022-11-18T03:35:50.438Z,10.00
2022-11-18T03:37:00.663Z,10.00
2022-11-18T03:38:08.586Z,10.00
2022-11-18T03:39:13.461Z,10.10
2022-11-18T03:40:21.284Z,10.10
2022-11-18T03:41:26.594Z,10.00
2022-11-18T03:42:33.891Z,10.00
2022-11-18T03:43:39.994Z,10.00
2022-11-18T03:44:52.185Z,10.00
2022-11-18T03:46:00.815Z,10.00
2022-11-18T03:47:08.051Z,10.00
2022-11-18T03:48:15.875Z,10.00
2022-11-18T03:49:25.115Z,10.00
2022-11-18T03:50:30.077Z,10.00
2022-11-18T03:51:53.992Z,10.00
2022-11-18T03:52:57.443Z,10.00
2022-11-18T03:54:09.702Z,9.90
2022-11-18T03:55:14.461Z,9.80
2022-11-18T03:56:20.662Z,9.80
2022-11-18T03:57:30.565Z,9.80
2022-11-18T03:58:37.326Z,9.80
2022-11-18T03:59:43.998Z,9.70
2022-11-18T04:00:50.173Z,9.80
2022-11-18T04:01:55.143Z,9.80
2022-11-18T04:02:58.378Z,9.80
2022-11-18T04:04:01.962Z,9.80
2022-11-18T04:05:07.686Z,9.80
2022-11-18T04:06:28.582Z,9.80
2022-11-18T04:07:34.913Z,9.80
2022-11-18T04:08:40.474Z,9.80
2022-11-18T04:09:47.660Z,9.80
2022-11-18T04:10:54.591Z,9.80
2022-11-18T04:12:07.232Z,9.90
2022-11-18T04:13:15.948Z,9.90
2022-11-18T04:14:20.531Z,9.80
2022-11-18T04:15:24.450Z,9.90
2022-11-18T04:16:27.387Z,9.90
2022-11-18T04:17:29.611Z,9.90
2022-11-18T04:18:32.571Z,9.90
2022-11-18T04:19:36.284Z,9.90
2022-11-18T04:20:39.653Z,9.90
2022-11-18T04:21:41.692Z,9.90
2022-11-18T04:22:45.714Z,9.80
2022-11-18T04:23:47.702Z,9.80
2022-11-18T04:24:50.630Z,9.80
2022-11-18T04:25:52.635Z,9.90
2022-11-18T04:26:55.622Z,9.80
2022-11-18T04:27:57.582Z,9.90
2022-11-18T04:29:00.696Z,9.90
2022-11-18T04:30:03.167Z,9.80
2022-11-18T04:31:06.353Z,9.90
2022-11-18T04:32:08.693Z,9.90
2022-11-18T04:33:11.619Z,9.90
2022-11-18T04:34:14.001Z,9.90
2022-11-18T04:35:18.557Z,9.90
2022-11-18T04:36:20.518Z,9.90
2022-11-18T04:37:23.534Z,9.80
2022-11-18T04:38:25.495Z,9.80
2022-11-18T04:39:28.476Z,9.80
2022-11-18T04:40:30.527Z,9.90
2022-11-18T04:41:50.924Z,9.90
2022-11-18T04:42:53.854Z,9.90
2022-11-18T04:43:55.818Z,9.90
2022-11-18T04:44:58.792Z,9.90
2022-11-18T04:46:00.865Z,9.90
2022-11-18T04:47:06.307Z,9.90
2022-11-18T04:48:08.296Z,9.90
2022-11-18T04:49:12.685Z,9.80
2022-11-18T04:50:15.597Z,9.80
2022-11-18T04:51:18.894Z,9.80
2022-11-18T04:52:21.880Z,9.90
2022-11-18T04:53:23.822Z,9.90
2022-11-18T04:54:28.115Z,9.90
2022-11-18T04:55:30.099Z,9.90
2022-11-18T04:56:33.347Z,10.00
2022-11-18T04:57:36.331Z,10.00
2022-11-18T04:58:38.298Z,9.90
2022-11-18T04:59:41.361Z,9.90
2022-11-18T05:00:43.833Z,9.90
2022-11-18T05:01:46.882Z,10.00
2022-11-18T05:02:48.991Z,9.90
2022-11-18T05:03:51.955Z,9.90
2022-11-18T05:04:54.938Z,9.90
2022-11-18T05:06:01.939Z,9.90
2022-11-18T05:07:07.802Z,9.90
2022-11-18T05:08:09.894Z,9.90
2022-11-18T05:09:13.107Z,9.90
2022-11-18T05:10:15.205Z,9.90
2022-11-18T05:11:35.625Z,9.80
2022-11-18T05:12:50.901Z,9.90
2022-11-18T05:13:53.194Z,9.80
2022-11-18T05:14:56.150Z,9.90
2022-11-18T05:16:07.302Z,9.90
2022-11-18T05:17:11.035Z,9.90
2022-11-18T05:18:12.989Z,9.90
2022-11-18T05:19:16.363Z,9.90
2022-11-18T05:20:19.734Z,10.00
2022-11-18T05:21:21.703Z,10.00
2022-11-18T05:22:26.009Z,10.00
2022-11-18T05:23:27.919Z,9.90
2022-11-18T05:24:30.873Z,9.90
2022-11-18T05:25:32.794Z,9.90
2022-11-18T05:26:35.762Z,9.90
2022-11-18T05:27:38.726Z,9.90
2022-11-18T05:28:40.733Z,9.90
2022-11-18T05:29:44.105Z,10.00
2022-11-18T05:30:46.074Z,9.90
2022-11-18T05:31:49.712Z,10.00
2022-11-18T05:32:51.785Z,10.00
2022-11-18T05:33:54.754Z,9.90
2022-11-18T05:34:57.671Z,9.90
2022-11-18T05:36:03.564Z,9.90
2022-11-18T05:37:18.830Z,10.00
2022-11-18T05:38:22.101Z,10.00
2022-11-18T05:39:25.017Z,10.00
2022-11-18T05:40:27.036Z,10.00
2022-11-18T05:41:47.654Z,10.00
2022-11-18T05:43:07.397Z,10.00
2022-11-18T05:44:10.339Z,9.90
2022-11-18T05:45:13.527Z,9.90
2022-11-18T05:46:15.542Z,9.90
2022-11-18T05:47:18.551Z,9.90
2022-11-18T05:48:20.908Z,9.90
2022-11-18T05:49:24.413Z,9.90
2022-11-18T05:50:26.613Z,9.90
2022-11-18T05:51:29.804Z,9.90
2022-11-18T05:52:31.758Z,9.90
2022-11-18T05:53:36.510Z,9.90
2022-11-18T05:54:40.902Z,9.90
2022-11-18T05:55:49.259Z,10.00
2022-11-18T05:56:51.369Z,9.90
2022-11-18T05:57:54.386Z,9.90
2022-11-18T05:58:56.622Z,9.80
2022-11-18T05:59:59.727Z,9.90
2022-11-18T06:01:07.896Z,9.90
2022-11-18T06:02:17.667Z,9.90
2022-11-18T06:03:30.237Z,9.90
2022-11-18T06:04:36.178Z,9.90
2022-11-18T06:05:38.189Z,9.90
2022-11-18T06:06:41.300Z,9.90
2022-11-18T06:07:44.844Z,9.80
2022-11-18T06:08:53.473Z,9.80
2022-11-18T06:10:04.997Z,9.80
2022-11-18T06:11:12.292Z,9.80
2022-11-18T06:12:17.260Z,9.80
2022-11-18T06:13:25.021Z,9.80
2022-11-18T06:14:33.173Z,9.80
2022-11-18T06:15:40.623Z,9.80
2022-11-18T06:16:50.921Z,9.70
2022-11-18T06:18:09.594Z,9.80
2022-11-18T06:19:21.134Z,9.80
2022-11-18T06:20:24.623Z,9.90
2022-11-18T06:21:28.386Z,9.80
2022-11-18T06:22:31.410Z,9.80
2022-11-18T06:23:36.794Z,9.80
2022-11-18T06:24:41.879Z,9.80
2022-11-18T06:25:44.075Z,9.80
2022-11-18T06:26:48.151Z,9.70
2022-11-18T06:27:51.846Z,9.90
2022-11-18T06:28:56.494Z,9.80
2022-11-18T06:29:58.506Z,9.70
2022-11-18T06:31:01.546Z,9.70
2022-11-18T06:32:03.623Z,9.70
2022-11-18T06:33:06.561Z,9.70
2022-11-18T06:34:08.557Z,9.70
2022-11-18T06:35:11.969Z,9.70
2022-11-18T06:36:13.953Z,9.70
2022-11-18T06:37:18.515Z,9.80
2022-11-18T06:38:24.567Z,9.70
2022-11-18T06:39:28.054Z,9.80
2022-11-18T06:40:34.660Z,9.80
2022-11-18T06:41:37.993Z,9.80
2022-11-18T06:42:58.393Z,9.70
2022-11-18T06:44:01.737Z,9.70
2022-11-18T06:45:05.404Z,9.70
2022-11-18T06:46:47.535Z,9.70
2022-11-18T06:47:50.473Z,9.70
2022-11-18T06:48:53.198Z,9.80
2022-11-18T06:49:56.287Z,9.80
2022-11-18T06:50:58.259Z,9.80
2022-11-18T06:52:01.226Z,9.70
2022-11-18T06:53:03.195Z,9.70
2022-11-18T06:54:10.479Z,9.70
2022-11-18T06:55:13.021Z,9.70
2022-11-18T06:56:18.301Z,9.70
2022-11-18T06:57:21.296Z,9.70
2022-11-18T06:58:27.063Z,9.80
2022-11-18T06:59:30.014Z,9.80
2022-11-18T07:00:32.040Z,9.70
2022-11-18T07:01:37.859Z,9.70
2022-11-18T07:02:41.536Z,9.80
2022-11-18T07:03:46.014Z,9.80
2022-11-18T07:04:49.080Z,9.80
2022-11-18T07:05:51.022Z,9.80
2022-11-18T07:06:53.986Z,9.80
2022-11-18T07:07:56.050Z,9.80
2022-11-18T07:09:00.610Z,9.80
2022-11-18T07:10:03.584Z,9.80
2022-11-18T07:11:07.868Z,9.90
2022-11-18T07:12:12.653Z,9.90
2022-11-18T07:13:14.645Z,10.00
2022-11-18T07:14:20.284Z,9.90
2022-11-18T07:15:35.328Z,9.90
2022-11-18T07:16:38.577Z,9.90
2022-11-18T07:17:40.614Z,10.00
2022-11-18T07:18:45.107Z,10.00
2022-11-18T07:19:48.045Z,10.00
2022-11-18T07:20:49.993Z,10.00
2022-11-18T07:21:53.105Z,10.00
2022-11-18T07:22:55.112Z,9.90
2022-11-18T07:23:58.571Z,10.00
2022-11-18T07:25:01.534Z,10.00
2022-11-18T07:26:06.438Z,9.90
2022-11-18T07:27:10.879Z,9.90
2022-11-18T07:28:13.482Z,9.90
2022-11-18T07:29:16.835Z,10.00
2022-11-18T07:30:19.170Z,9.90
2022-11-18T07:31:25.635Z,10.00
2022-11-18T07:32:27.597Z,10.00
2022-11-18T07:33:31.007Z,10.00
2022-11-18T07:34:33.988Z,10.00
2022-11-18T07:35:35.953Z,10.00
2022-11-18T07:36:38.906Z,9.90
2022-11-18T07:37:40.837Z,10.00
2022-11-18T07:38:44.044Z,10.10
2022-11-18T07:39:46.966Z,10.10
2022-11-18T07:40:48.938Z,10.00
2022-11-18T07:41:51.950Z,9.90
2022-11-18T07:42:55.526Z,10.00
2022-11-18T07:44:00.979Z,10.00
2022-11-18T07:45:03.481Z,9.90
2022-11-18T07:46:15.010Z,10.00
2022-11-18T07:47:18.138Z,10.00
2022-11-18T07:48:20.136Z,9.90
2022-11-18T07:49:23.101Z,9.10
2022-11-18T07:50:25.147Z,9.90
2022-11-18T07:51:29.797Z,10.00
2022-11-18T07:52:32.105Z,10.00
2022-11-18T07:53:36.900Z,10.00
2022-11-18T07:54:40.035Z,10.00
2022-11-18T07:55:42.145Z,10.00
2022-11-18T07:56:48.100Z,10.00
2022-11-18T07:57:50.878Z,10.00
2022-11-18T07:58:56.416Z,10.10
2022-11-18T07:59:58.364Z,10.10
2022-11-18T08:01:08.581Z,10.20
2022-11-18T08:02:12.342Z,10.10
2022-11-18T08:03:15.367Z,10.10
2022-11-18T08:04:18.060Z,10.10
2022-11-18T08:05:21.042Z,10.10
2022-11-18T08:06:26.542Z,10.10
2022-11-18T08:07:29.683Z,10.10
2022-11-18T08:08:32.910Z,10.10
2022-11-18T08:09:35.063Z,10.10
2022-11-18T08:10:38.625Z,10.10
2022-11-18T08:11:41.914Z,10.20
2022-11-18T08:12:45.046Z,10.10
2022-11-18T08:13:47.022Z,10.10
2022-11-18T08:14:51.777Z,10.10
2022-11-18T08:15:55.641Z,10.10
2022-11-18T08:16:58.594Z,10.10
2022-11-18T08:18:00.769Z,10.10
2022-11-18T08:19:03.780Z,10.10
2022-11-18T08:20:07.832Z,10.10
2022-11-18T08:21:25.345Z,10.10
2022-11-18T08:22:28.374Z,10.00
2022-11-18T08:23:34.040Z,10.00
2022-11-18T08:24:39.472Z,10.10
2022-11-18T08:25:43.216Z,10.10
2022-11-18T08:26:46.266Z,10.10
2022-11-18T08:27:49.601Z,10.20
2022-11-18T08:28:53.070Z,10.20
2022-11-18T08:29:57.717Z,10.20
2022-11-18T08:30:59.775Z,10.20
2022-11-18T08:32:05.400Z,10.20
2022-11-18T08:33:07.431Z,10.20
2022-11-18T08:34:10.632Z,10.30
2022-11-18T08:35:15.959Z,10.30
2022-11-18T08:36:21.831Z,10.20
2022-11-18T08:37:25.102Z,10.30
2022-11-18T08:38:29.607Z,10.30
2022-11-18T08:39:32.579Z,10.30
2022-11-18T08:40:34.577Z,10.30
2022-11-18T08:41:39.379Z,10.30
2022-11-18T08:42:42.308Z,10.30
2022-11-18T08:43:44.349Z,10.30
2022-11-18T08:44:47.282Z,10.30
2022-11-18T08:45:51.009Z,10.40
2022-11-18T08:46:53.976Z,10.40
2022-11-18T08:47:57.191Z,10.30
2022-11-18T08:48:59.661Z,10.40
2022-11-18T08:50:02.786Z,10.30
2022-11-18T08:51:05.068Z,10.40
2022-11-18T08:52:08.069Z,10.30
2022-11-18T08:53:12.148Z,10.40
2022-11-18T08:54:15.327Z,10.40
2022-11-18T08:55:17.970Z,10.40
2022-11-18T08:56:23.078Z,10.40
2022-11-18T08:57:26.160Z,10.40
2022-11-18T08:58:28.904Z,10.40
2022-11-18T08:59:32.431Z,10.40
2022-11-18T09:00:34.447Z,10.40
2022-11-18T09:01:41.183Z,10.50
2022-11-18T09:02:45.188Z,10.40
2022-11-18T09:03:59.387Z,10.50
2022-11-18T09:05:04.513Z,10.40
2022-11-18T09:06:13.468Z,10.30
2022-11-18T09:07:16.634Z,10.40
2022-11-18T09:08:18.870Z,10.40
2022-11-18T09:09:24.424Z,10.50
2022-11-18T09:10:26.554Z,10.50
2022-11-18T09:11:29.664Z,10.50
2022-11-18T09:12:32.613Z,10.50
2022-11-18T09:14:00.564Z,10.50
2022-11-18T09:16:22.327Z,10.60
2022-11-18T09:17:30.940Z,10.50
2022-11-18T09:18:33.280Z,10.40
2022-11-18T09:19:51.805Z,10.40
2022-11-18T09:20:58.715Z,10.50
2022-11-18T09:22:02.785Z,10.50
2022-11-18T09:23:04.779Z,10.50
2022-11-18T09:24:08.648Z,10.50
2022-11-18T09:25:11.963Z,10.50
2022-11-18T09:26:16.734Z,10.50
2022-11-18T09:27:19.771Z,10.50
2022-11-18T09:28:22.072Z,10.40
2022-11-18T09:29:26.540Z,10.30
2022-11-18T09:30:29.611Z,10.40
2022-11-18T09:31:31.604Z,10.40
2022-11-18T09:32:36.040Z,10.40
2022-11-18T09:33:38.934Z,10.40
2022-11-18T09:34:42.031Z,10.50
2022-11-18T09:35:44.794Z,10.50
2022-11-18T09:36:47.874Z,10.40
2022-11-18T09:37:50.775Z,10.50
2022-11-18T09:38:53.618Z,10.60
2022-11-18T09:39:56.721Z,10.50
2022-11-18T09:41:07.119Z,10.50
2022-11-18T09:42:37.055Z,10.50
2022-11-18T09:43:52.274Z,10.50
2022-11-18T09:45:12.880Z,10.50
2022-11-18T09:46:27.013Z,10.50
2022-11-18T09:47:32.282Z,10.40
2022-11-18T09:49:10.674Z,10.40
2022-11-18T09:50:47.261Z,10.40
2022-11-18T09:51:41.335Z,10.40
2022-11-18T09:52:50.405Z,10.40
2022-11-18T09:53:52.342Z,10.50
2022-11-18T09:54:55.444Z,10.50
2022-11-18T09:55:57.611Z,10.40
2022-11-18T09:57:01.382Z,10.20
2022-11-18T09:58:06.578Z,10.20
2022-11-18T09:59:14.079Z,10.30
2022-11-18T10:00:20.875Z,10.20
2022-11-18T10:01:25.484Z,10.20
2022-11-18T10:02:44.312Z,10.20
2022-11-18T10:03:48.787Z,10.20
2022-11-18T10:04:51.426Z,10.10
2022-11-18T10:05:59.232Z,10.20
2022-11-18T10:07:11.493Z,10.30
2022-11-18T10:08:25.027Z,10.30
2022-11-18T10:09:34.420Z,10.30
2022-11-18T10:10:45.176Z,10.40
2022-11-18T10:12:10.265Z,10.40
2022-11-18T10:13:19.915Z,10.40
2022-11-18T10:14:34.534Z,10.50
2022-11-18T10:15:40.634Z,10.30
2022-11-18T10:16:55.166Z,10.20
2022-11-18T10:18:14.050Z,10.30
2022-11-18T10:19:30.367Z,10.40
2022-11-18T10:20:40.747Z,10.40
2022-11-18T10:21:55.574Z,10.30
2022-11-18T10:23:03.129Z,10.30
2022-11-18T10:24:13.526Z,10.20
2022-11-18T10:25:17.164Z,10.20
2022-11-18T10:26:34.375Z,10.30
2022-11-18T10:27:40.712Z,10.20
2022-11-18T10:28:43.632Z,10.20
2022-11-18T10:29:49.318Z,10.30
2022-11-18T10:30:53.071Z,10.30
2022-11-18T10:32:04.266Z,10.40
2022-11-18T10:33:24.241Z,10.30
2022-11-18T10:34:28.669Z,10.20
2022-11-18T10:35:33.073Z,10.30
2022-11-18T10:36:37.857Z,10.40
2022-11-18T10:38:06.224Z,10.30
2022-11-18T10:39:14.312Z,10.30
2022-11-18T10:40:25.594Z,10.30
2022-11-18T10:41:28.523Z,10.30
2022-11-18T10:42:37.147Z,10.30
2022-11-18T10:43:44.849Z,10.30
2022-11-18T10:44:47.794Z,10.40
2022-11-18T10:45:50.701Z,10.50
2022-11-18T10:46:52.698Z,10.30
2022-11-18T10:48:01.090Z,10.30
2022-11-18T10:49:16.395Z,10.40
2022-11-18T10:50:32.043Z,10.30
2022-11-18T10:51:34.454Z,10.40
2022-11-18T10:52:53.394Z,10.40
2022-11-18T10:54:09.715Z,10.30
2022-11-18T10:55:23.042Z,10.40
2022-11-18T10:56:27.686Z,10.30
2022-11-18T10:57:32.435Z,10.30
2022-11-18T10:58:38.076Z,10.30
2022-11-18T10:59:41.972Z,10.30
2022-11-18T11:00:48.159Z,10.30
2022-11-18T11:01:59.681Z,10.30
2022-11-18T11:03:26.698Z,10.30
2022-11-18T11:04:30.706Z,10.30
2022-11-18T11:05:34.097Z,10.30
2022-11-18T11:06:38.666Z,10.40
2022-11-18T11:07:40.721Z,10.30
2022-11-18T11:08:49.818Z,10.30
2022-11-18T11:10:02.292Z,10.40
2022-11-18T11:11:04.506Z,10.20
2022-11-18T11:12:15.801Z,10.20
2022-11-18T11:13:18.192Z,10.20
2022-11-18T11:14:24.594Z,10.20
2022-11-18T11:15:34.109Z,10.10
2022-11-18T11:16:52.801Z,10.20
2022-11-18T11:18:20.534Z,10.20
2022-11-18T11:19:27.754Z,10.20
2022-11-18T11:20:29.762Z,10.10
2022-11-18T11:21:34.047Z,10.20
2022-11-18T11:22:37.003Z,10.10
2022-11-18T11:23:39.072Z,10.10
2022-11-18T11:24:42.262Z,10.10
2022-11-18T11:28:57.670Z,10.10
2022-11-18T11:30:11.732Z,10.10
2022-11-18T11:31:22.529Z,10.10
2022-11-18T11:32:35.897Z,10.20
2022-11-18T11:33:45.739Z,10.20
2022-11-18T11:34:58.342Z,10.20
2022-11-18T11:36:22.153Z,10.10
2022-11-18T11:37:37.405Z,10.10
2022-11-18T11:38:58.630Z,10.20
2022-11-18T11:40:21.196Z,10.20
2022-11-18T11:41:25.903Z,10.20
2022-11-18T11:42:42.113Z,10.20
2022-11-18T11:43:59.623Z,10.20
2022-11-18T11:45:19.208Z,10.10
2022-11-18T11:46:32.381Z,10.20
2022-11-18T11:47:50.236Z,10.20
2022-11-18T11:49:02.419Z,10.20
2022-11-18T11:50:13.953Z,10.10
2022-11-18T11:51:26.012Z,10.10
2022-11-18T11:52:41.466Z,10.20
2022-11-18T11:54:07.219Z,10.20
2022-11-18T11:55:22.877Z,10.10
2022-11-18T11:56:33.191Z,10.10
2022-11-18T11:57:47.301Z,10.20
2022-11-18T11:59:08.219Z,10.10
2022-11-18T12:00:15.081Z,10.10
2022-11-18T12:01:25.448Z,10.20
2022-11-18T12:02:46.185Z,10.20
2022-11-18T12:03:52.466Z,10.20
2022-11-18T12:04:58.092Z,10.20
2022-11-18T12:06:00.983Z,10.30
2022-11-18T12:07:06.328Z,10.20
2022-11-18T12:08:17.349Z,10.20
2022-11-18T12:09:26.448Z,10.20
2022-11-18T12:10:36.999Z,10.20
2022-11-18T12:11:47.995Z,10.20
2022-11-18T12:13:00.330Z,10.10
2022-11-18T12:14:07.139Z,10.20
2022-11-18T12:15:25.424Z,10.30
2022-11-18T12:16:36.031Z,9.40
2022-11-18T12:17:45.739Z,10.20
2022-11-18T12:18:55.250Z,10.20
2022-11-18T12:19:57.235Z,10.20
2022-11-18T12:21:00.172Z,10.10
2022-11-18T12:22:05.212Z,10.10
2022-11-18T12:23:14.703Z,10.20
2022-11-18T12:24:36.518Z,10.20
2022-11-18T12:25:53.828Z,10.30
2022-11-18T12:26:56.761Z,10.20
2022-11-18T12:28:00.100Z,10.20
2022-11-18T12:29:23.564Z,10.10
2022-11-18T12:30:25.611Z,10.20
2022-11-18T12:31:36.561Z,10.30
2022-11-18T12:32:42.477Z,10.20
2022-11-18T12:33:47.291Z,10.20
2022-11-18T12:34:59.571Z,10.20
2022-11-18T12:36:02.641Z,10.10
2022-11-18T12:37:43.057Z,10.10
2022-11-18T12:38:47.385Z,10.20
2022-11-18T12:39:58.496Z,10.20
2022-11-18T12:41:21.491Z,10.20
2022-11-18T12:43:02.108Z,10.20
2022-11-18T12:44:10.544Z,10.20
2022-11-18T12:45:58.363Z,10.30
2022-11-18T12:47:01.885Z,10.20
2022-11-18T12:48:04.325Z,10.20
2022-11-18T12:49:40.504Z,10.30
2022-11-18T12:50:50.706Z,10.20
2022-11-18T12:51:54.572Z,10.20
2022-11-18T12:52:56.578Z,10.20
2022-11-18T12:54:01.008Z,10.20
2022-11-18T12:55:11.752Z,10.20
2022-11-18T12:56:24.239Z,10.10
2022-11-18T12:57:29.999Z,10.20
2022-11-18T12:58:32.890Z,10.20
2022-11-18T12:59:39.151Z,10.20
2022-11-18T13:00:54.581Z,10.20
2022-11-18T13:02:19.196Z,10.20
2022-11-18T13:03:29.319Z,10.20
2022-11-18T13:04:31.351Z,10.10
2022-11-18T13:05:35.715Z,10.10
2022-11-18T13:06:40.222Z,10.20
2022-11-18T13:08:04.544Z,10.20
2022-11-18T13:09:17.307Z,10.20
2022-11-18T13:10:24.219Z,10.20
2022-11-18T13:11:47.652Z,10.20
2022-11-18T13:12:50.930Z,10.20
2022-11-18T13:14:14.906Z,10.20
2022-11-18T13:15:36.905Z,10.20
2022-11-18T13:16:58.488Z,9.30
2022-11-18T13:18:08.365Z,9.00
2022-11-18T13:19:22.626Z,9.00
2022-11-18T13:20:31.110Z,8.40
2022-11-18T13:21:52.045Z,8.10
2022-11-18T13:23:14.792Z,8.10
2022-11-18T13:24:21.511Z,8.20
2022-11-18T13:25:25.263Z,8.30
2022-11-18T13:26:30.200Z,8.60
2022-11-18T13:27:46.721Z,8.30
2022-11-18T13:29:22.228Z,8.40
2022-11-18T13:30:25.555Z,8.40
2022-11-18T13:31:35.544Z,8.30
2022-11-18T13:32:44.867Z,8.20
2022-11-18T13:33:47.815Z,8.10
2022-11-18T13:34:52.330Z,8.90
2022-11-18T13:35:55.362Z,8.20
2022-11-18T13:36:59.957Z,8.20
2022-11-18T13:38:03.960Z,8.20
2022-11-18T13:39:06.811Z,8.30
2022-11-18T13:40:20.803Z,8.20
2022-11-18T13:41:24.583Z,8.20
2022-11-18T13:42:29.577Z,8.10
2022-11-18T13:43:32.119Z,8.10
2022-11-18T13:44:37.004Z,8.20
2022-11-18T13:45:40.789Z,8.30
2022-11-18T13:46:44.521Z,8.20
2022-11-18T13:47:50.685Z,8.20
2022-11-18T13:48:59.427Z,8.30
2022-11-18T13:50:14.651Z,8.30
2022-11-18T13:51:17.944Z,8.20
2022-11-18T13:52:24.883Z,8.20
2022-11-18T13:53:31.382Z,8.30
2022-11-18T13:54:34.092Z,8.30
2022-11-18T13:55:41.406Z,8.30
2022-11-18T13:56:44.571Z,8.40
2022-11-18T13:57:49.529Z,8.30
2022-11-18T14:00:24.530Z,8.30
2022-11-18T14:01:29.956Z,8.30
2022-11-18T14:02:33.625Z,8.40
2022-11-18T14:03:48.059Z,8.30
2022-11-18T14:04:54.312Z,8.40
2022-11-18T14:05:58.474Z,8.40
2022-11-18T14:07:22.750Z,8.50
2022-11-18T14:08:29.364Z,8.50
2022-11-18T14:09:32.893Z,8.40
2022-11-18T14:10:43.122Z,8.40
2022-11-18T14:11:47.761Z,8.40
2022-11-18T14:12:59.122Z,8.50
2022-11-18T14:14:01.145Z,8.40
2022-11-18T14:15:17.955Z,8.50
2022-11-18T14:16:34.913Z,8.50
2022-11-18T14:17:36.913Z,8.50
2022-11-18T14:18:48.512Z,8.40
2022-11-18T14:19:52.433Z,8.40
2022-11-18T14:20:56.200Z,8.60
2022-11-18T14:22:07.386Z,8.70
2022-11-18T14:23:17.770Z,8.60
2022-11-18T14:24:27.146Z,8.50
2022-11-18T14:25:33.033Z,8.50
2022-11-18T14:26:38.972Z,8.40
2022-11-18T14:27:42.920Z,8.40
2022-11-18T14:28:55.405Z,8.50
2022-11-18T14:29:57.352Z,8.50
2022-11-18T14:31:03.962Z,8.50
2022-11-18T14:32:15.519Z,8.50
2022-11-18T14:33:21.519Z,8.60
2022-11-18T14:34:26.997Z,8.60
2022-11-18T14:35:33.344Z,8.70
2022-11-18T14:36:40.719Z,8.90